sensor_id;sensor_type;location;lat;lon;timestamp;P1;durP1;ratioP1;P2;durP2;ratioP2
59766;SDS011;46248;58.364;25.582;2022-11-20T00:01:46;9.02;;;4.38;;
59766;SDS011;46248;58.364;25.582;2022-11-20T00:05:10;6.20;;;4.50;;
59766;SDS011;46248;58.364;25.582;2022-11-20T00:08:32;5.50;;;3.75;;
59766;SDS011;46248;58.364;25.582;2022-11-20T00:11:54;6.25;;;3.80;;
59766;SDS011;46248;58.364;25.582;2022-11-20T00:15:16;8.02;;;3.95;;
59766;SDS011;46248;58.364;25.582;2022-11-20T00:18:38;7.28;;;3.83;;
59766;SDS011;46248;58.364;25.582;2022-11-20T00:22:01;9.35;;;3.97;;
59766;SDS011;46248;58.364;25.582;2022-11-20T00:25:22;8.57;;;4.22;;
59766;SDS011;46248;58.364;25.582;2022-11-20T00:28:49;9.27;;;4.50;;
59766;SDS011;46248;58.364;25.582;2022-11-20T00:32:12;11.88;;;4.88;;
59766;SDS011;46248;58.364;25.582;2022-11-20T00:35:34;6.18;;;3.63;;
59766;SDS011;46248;58.364;25.582;2022-11-20T00:38:58;8.40;;;3.90;;
59766;SDS011;46248;58.364;25.582;2022-11-20T00:42:21;6.22;;;4.38;;
59766;SDS011;46248;58.364;25.582;2022-11-20T00:45:43;9.43;;;4.72;;
59766;SDS011;46248;58.364;25.582;2022-11-20T00:49:05;7.55;;;3.83;;
59766;SDS011;46248;58.364;25.582;2022-11-20T00:52:27;7.78;;;4.38;;
59766;SDS011;46248;58.364;25.582;2022-11-20T00:55:54;8.77;;;4.78;;
59766;SDS011;46248;58.364;25.582;2022-11-20T00:59:16;7.57;;;4.47;;
59766;SDS011;46248;58.364;25.582;2022-11-20T01:02:39;7.85;;;3.90;;
59766;SDS011;46248;58.364;25.582;2022-11-20T01:06:01;8.98;;;3.78;;
59766;SDS011;46248;58.364;25.582;2022-11-20T01:09:24;6.75;;;3.45;;
59766;SDS011;46248;58.364;25.582;2022-11-20T01:12:47;8.20;;;4.15;;
59766;SDS011;46248;58.364;25.582;2022-11-20T01:16:29;6.75;;;3.53;;
59766;SDS011;46248;58.364;25.582;2022-11-20T01:19:53;11.80;;;4.90;;
59766;SDS011;46248;58.364;25.582;2022-11-20T01:23:15;11.68;;;5.10;;
59766;SDS011;46248;58.364;25.582;2022-11-20T01:26:38;8.52;;;4.38;;
59766;SDS011;46248;58.364;25.582;2022-11-20T01:30:02;8.98;;;4.45;;
59766;SDS011;46248;58.364;25.582;2022-11-20T01:33:25;9.38;;;4.97;;
59766;SDS011;46248;58.364;25.582;2022-11-20T01:36:47;9.18;;;4.90;;
59766;SDS011;46248;58.364;25.582;2022-11-20T01:40:10;10.00;;;4.68;;
59766;SDS011;46248;58.364;25.582;2022-11-20T01:43:33;6.53;;;4.40;;
59766;SDS011;46248;58.364;25.582;2022-11-20T01:46:56;7.40;;;4.40;;
59766;SDS011;46248;58.364;25.582;2022-11-20T01:50:21;6.20;;;3.35;;
59766;SDS011;46248;58.364;25.582;2022-11-20T01:53:45;9.52;;;5.32;;
59766;SDS011;46248;58.364;25.582;2022-11-20T01:57:08;6.35;;;3.70;;
59766;SDS011;46248;58.364;25.582;2022-11-20T02:00:33;8.23;;;4.15;;
59766;SDS011;46248;58.364;25.582;2022-11-20T02:03:56;10.75;;;5.00;;
59766;SDS011;46248;58.364;25.582;2022-11-20T02:07:20;7.90;;;3.80;;
59766;SDS011;46248;58.364;25.582;2022-11-20T02:10:44;9.02;;;5.78;;
59766;SDS011;46248;58.364;25.582;2022-11-20T02:14:06;11.10;;;5.60;;
59766;SDS011;46248;58.364;25.582;2022-11-20T02:17:29;14.77;;;6.40;;
59766;SDS011;46248;58.364;25.582;2022-11-20T02:20:53;12.75;;;5.45;;
59766;SDS011;46248;58.364;25.582;2022-11-20T02:24:24;15.13;;;7.50;;
59766;SDS011;46248;58.364;25.582;2022-11-20T02:27:46;15.30;;;6.95;;
59766;SDS011;46248;58.364;25.582;2022-11-20T02:31:09;14.02;;;7.03;;
59766;SDS011;46248;58.364;25.582;2022-11-20T02:34:31;15.20;;;6.25;;
59766;SDS011;46248;58.364;25.582;2022-11-20T02:37:54;15.35;;;6.57;;
59766;SDS011;46248;58.364;25.582;2022-11-20T02:41:19;14.20;;;6.40;;
59766;SDS011;46248;58.364;25.582;2022-11-20T02:44:41;12.32;;;6.13;;
59766;SDS011;46248;58.364;25.582;2022-11-20T02:48:03;13.70;;;6.63;;
59766;SDS011;46248;58.364;25.582;2022-11-20T02:51:27;15.88;;;7.57;;
59766;SDS011;46248;58.364;25.582;2022-11-20T02:54:49;13.07;;;6.22;;
59766;SDS011;46248;58.364;25.582;2022-11-20T02:58:13;10.60;;;6.22;;
59766;SDS011;46248;58.364;25.582;2022-11-20T03:01:35;15.38;;;6.97;;
59766;SDS011;46248;58.364;25.582;2022-11-20T03:04:57;12.93;;;6.22;;
59766;SDS011;46248;58.364;25.582;2022-11-20T03:08:21;16.60;;;7.18;;
59766;SDS011;46248;58.364;25.582;2022-11-20T03:11:43;16.23;;;8.27;;
59766;SDS011;46248;58.364;25.582;2022-11-20T03:15:07;14.32;;;6.38;;
59766;SDS011;46248;58.364;25.582;2022-11-20T03:18:30;17.38;;;6.68;;
59766;SDS011;46248;58.364;25.582;2022-11-20T03:21:52;15.15;;;6.95;;
59766;SDS011;46248;58.364;25.582;2022-11-20T03:25:14;14.85;;;6.85;;
59766;SDS011;46248;58.364;25.582;2022-11-20T03:28:36;16.77;;;7.50;;
59766;SDS011;46248;58.364;25.582;2022-11-20T03:31:59;17.60;;;7.40;;
59766;SDS011;46248;58.364;25.582;2022-11-20T03:35:21;17.33;;;7.55;;
59766;SDS011;46248;58.364;25.582;2022-11-20T03:38:43;15.77;;;6.32;;
59766;SDS011;46248;58.364;25.582;2022-11-20T03:42:05;12.18;;;5.95;;
59766;SDS011;46248;58.364;25.582;2022-11-20T03:45:48;11.18;;;5.57;;
59766;SDS011;46248;58.364;25.582;2022-11-20T03:49:10;11.65;;;5.38;;
59766;SDS011;46248;58.364;25.582;2022-11-20T03:52:32;18.80;;;6.75;;
59766;SDS011;46248;58.364;25.582;2022-11-20T03:55:54;16.67;;;7.00;;
59766;SDS011;46248;58.364;25.582;2022-11-20T03:59:16;14.73;;;6.32;;
59766;SDS011;46248;58.364;25.582;2022-11-20T04:02:38;17.02;;;8.27;;
59766;SDS011;46248;58.364;25.582;2022-11-20T04:06:03;13.45;;;6.05;;
59766;SDS011;46248;58.364;25.582;2022-11-20T04:09:26;18.65;;;8.98;;
59766;SDS011;46248;58.364;25.582;2022-11-20T04:12:48;15.48;;;6.82;;
59766;SDS011;46248;58.364;25.582;2022-11-20T04:16:09;18.58;;;7.05;;
59766;SDS011;46248;58.364;25.582;2022-11-20T04:19:31;22.23;;;7.75;;
59766;SDS011;46248;58.364;25.582;2022-11-20T04:22:55;19.17;;;7.63;;
59766;SDS011;46248;58.364;25.582;2022-11-20T04:26:16;15.75;;;8.07;;
59766;SDS011;46248;58.364;25.582;2022-11-20T04:29:38;14.55;;;6.85;;
59766;SDS011;46248;58.364;25.582;2022-11-20T04:33:00;16.45;;;6.63;;
59766;SDS011;46248;58.364;25.582;2022-11-20T04:36:23;14.00;;;5.95;;
59766;SDS011;46248;58.364;25.582;2022-11-20T04:39:47;10.98;;;6.28;;
59766;SDS011;46248;58.364;25.582;2022-11-20T04:43:09;10.35;;;5.53;;
59766;SDS011;46248;58.364;25.582;2022-11-20T04:46:32;19.40;;;8.65;;
59766;SDS011;46248;58.364;25.582;2022-11-20T04:49:56;15.10;;;6.28;;
59766;SDS011;46248;58.364;25.582;2022-11-20T04:53:18;17.70;;;7.50;;
59766;SDS011;46248;58.364;25.582;2022-11-20T04:56:41;15.48;;;7.88;;
59766;SDS011;46248;58.364;25.582;2022-11-20T05:00:03;9.98;;;5.25;;
59766;SDS011;46248;58.364;25.582;2022-11-20T05:03:26;10.00;;;5.18;;
59766;SDS011;46248;58.364;25.582;2022-11-20T05:06:49;13.57;;;5.95;;
59766;SDS011;46248;58.364;25.582;2022-11-20T05:10:11;14.32;;;5.97;;
59766;SDS011;46248;58.364;25.582;2022-11-20T05:13:34;15.70;;;6.63;;
59766;SDS011;46248;58.364;25.582;2022-11-20T05:16:56;13.88;;;6.10;;
59766;SDS011;46248;58.364;25.582;2022-11-20T05:20:18;12.77;;;6.68;;
59766;SDS011;46248;58.364;25.582;2022-11-20T05:23:41;13.15;;;5.93;;
59766;SDS011;46248;58.364;25.582;2022-11-20T05:27:02;11.48;;;6.30;;
59766;SDS011;46248;58.364;25.582;2022-11-20T05:30:26;12.80;;;6.40;;
59766;SDS011;46248;58.364;25.582;2022-11-20T05:33:48;11.80;;;5.80;;
59766;SDS011;46248;58.364;25.582;2022-11-20T05:37:09;8.88;;;4.65;;
59766;SDS011;46248;58.364;25.582;2022-11-20T05:40:31;10.88;;;5.88;;
59766;SDS011;46248;58.364;25.582;2022-11-20T05:43:55;15.75;;;6.72;;
59766;SDS011;46248;58.364;25.582;2022-11-20T05:47:19;13.13;;;5.88;;
59766;SDS011;46248;58.364;25.582;2022-11-20T05:50:41;11.63;;;5.72;;
59766;SDS011;46248;58.364;25.582;2022-11-20T05:54:03;11.05;;;5.82;;
59766;SDS011;46248;58.364;25.582;2022-11-20T05:57:25;10.18;;;4.80;;
59766;SDS011;46248;58.364;25.582;2022-11-20T06:00:47;8.52;;;5.05;;
59766;SDS011;46248;58.364;25.582;2022-11-20T06:04:11;8.52;;;4.25;;
59766;SDS011;46248;58.364;25.582;2022-11-20T06:07:32;8.38;;;5.68;;
59766;SDS011;46248;58.364;25.582;2022-11-20T06:10:55;12.13;;;6.15;;
59766;SDS011;46248;58.364;25.582;2022-11-20T06:14:17;11.38;;;6.57;;
59766;SDS011;46248;58.364;25.582;2022-11-20T06:17:38;12.73;;;5.85;;
59766;SDS011;46248;58.364;25.582;2022-11-20T06:21:02;7.47;;;4.50;;
59766;SDS011;46248;58.364;25.582;2022-11-20T06:24:25;7.38;;;3.60;;
59766;SDS011;46248;58.364;25.582;2022-11-20T06:27:47;9.65;;;4.80;;
59766;SDS011;46248;58.364;25.582;2022-11-20T06:31:10;11.07;;;5.32;;
59766;SDS011;46248;58.364;25.582;2022-11-20T06:34:33;7.45;;;4.15;;
59766;SDS011;46248;58.364;25.582;2022-11-20T06:37:56;8.43;;;4.45;;
59766;SDS011;46248;58.364;25.582;2022-11-20T06:41:19;8.50;;;4.75;;
59766;SDS011;46248;58.364;25.582;2022-11-20T06:44:41;7.85;;;4.85;;
59766;SDS011;46248;58.364;25.582;2022-11-20T06:48:03;10.38;;;6.47;;
59766;SDS011;46248;58.364;25.582;2022-11-20T06:51:25;7.90;;;4.75;;
59766;SDS011;46248;58.364;25.582;2022-11-20T06:54:49;8.07;;;4.53;;
59766;SDS011;46248;58.364;25.582;2022-11-20T06:58:10;8.02;;;4.25;;
59766;SDS011;46248;58.364;25.582;2022-11-20T07:01:33;9.38;;;5.25;;
59766;SDS011;46248;58.364;25.582;2022-11-20T07:04:55;10.07;;;4.93;;
59766;SDS011;46248;58.364;25.582;2022-11-20T07:08:17;8.77;;;4.10;;
59766;SDS011;46248;58.364;25.582;2022-11-20T07:11:40;8.77;;;4.60;;
59766;SDS011;46248;58.364;25.582;2022-11-20T07:15:03;11.05;;;5.90;;
59766;SDS011;46248;58.364;25.582;2022-11-20T07:18:25;11.30;;;5.43;;
59766;SDS011;46248;58.364;25.582;2022-11-20T07:21:47;13.30;;;5.40;;
59766;SDS011;46248;58.364;25.582;2022-11-20T07:25:09;12.00;;;5.65;;
59766;SDS011;46248;58.364;25.582;2022-11-20T07:28:33;8.50;;;4.88;;
59766;SDS011;46248;58.364;25.582;2022-11-20T07:31:55;7.53;;;3.20;;
59766;SDS011;46248;58.364;25.582;2022-11-20T07:35:18;9.02;;;5.15;;
59766;SDS011;46248;58.364;25.582;2022-11-20T07:38:40;14.23;;;6.25;;
59766;SDS011;46248;58.364;25.582;2022-11-20T07:42:02;8.90;;;5.05;;
59766;SDS011;46248;58.364;25.582;2022-11-20T07:45:25;12.77;;;5.43;;
59766;SDS011;46248;58.364;25.582;2022-11-20T07:48:47;14.80;;;6.72;;
59766;SDS011;46248;58.364;25.582;2022-11-20T07:52:09;14.10;;;5.55;;
59766;SDS011;46248;58.364;25.582;2022-11-20T07:55:31;10.18;;;4.70;;
59766;SDS011;46248;58.364;25.582;2022-11-20T07:58:54;9.10;;;3.80;;
59766;SDS011;46248;58.364;25.582;2022-11-20T08:02:17;9.18;;;4.97;;
59766;SDS011;46248;58.364;25.582;2022-11-20T08:05:39;19.52;;;7.53;;
59766;SDS011;46248;58.364;25.582;2022-11-20T08:09:01;6.63;;;3.53;;
59766;SDS011;46248;58.364;25.582;2022-11-20T08:12:23;8.02;;;3.45;;
59766;SDS011;46248;58.364;25.582;2022-11-20T08:16:03;5.47;;;2.80;;
59766;SDS011;46248;58.364;25.582;2022-11-20T08:19:27;8.95;;;3.42;;
59766;SDS011;46248;58.364;25.582;2022-11-20T08:22:51;7.30;;;3.40;;
59766;SDS011;46248;58.364;25.582;2022-11-20T08:26:13;5.32;;;3.28;;
59766;SDS011;46248;58.364;25.582;2022-11-20T08:29:35;10.70;;;3.55;;
59766;SDS011;46248;58.364;25.582;2022-11-20T08:33:00;4.50;;;2.97;;
59766;SDS011;46248;58.364;25.582;2022-11-20T08:36:24;10.95;;;5.80;;
59766;SDS011;46248;58.364;25.582;2022-11-20T08:39:49;32.28;;;12.48;;
59766;SDS011;46248;58.364;25.582;2022-11-20T08:43:12;12.30;;;5.18;;
59766;SDS011;46248;58.364;25.582;2022-11-20T08:46:35;21.92;;;9.32;;
59766;SDS011;46248;58.364;25.582;2022-11-20T08:49:58;13.30;;;5.57;;
59766;SDS011;46248;58.364;25.582;2022-11-20T08:53:21;8.30;;;3.83;;
59766;SDS011;46248;58.364;25.582;2022-11-20T08:56:43;8.30;;;4.22;;
59766;SDS011;46248;58.364;25.582;2022-11-20T09:00:06;10.68;;;5.13;;
59766;SDS011;46248;58.364;25.582;2022-11-20T09:03:29;8.80;;;4.60;;
59766;SDS011;46248;58.364;25.582;2022-11-20T09:06:54;10.93;;;5.60;;
59766;SDS011;46248;58.364;25.582;2022-11-20T09:10:17;6.78;;;3.53;;
59766;SDS011;46248;58.364;25.582;2022-11-20T09:13:44;10.25;;;5.50;;
59766;SDS011;46248;58.364;25.582;2022-11-20T09:17:06;10.27;;;5.13;;
59766;SDS011;46248;58.364;25.582;2022-11-20T09:20:28;7.25;;;4.35;;
59766;SDS011;46248;58.364;25.582;2022-11-20T09:23:51;16.58;;;6.63;;
59766;SDS011;46248;58.364;25.582;2022-11-20T09:27:14;14.95;;;5.38;;
59766;SDS011;46248;58.364;25.582;2022-11-20T09:30:41;18.00;;;8.77;;
59766;SDS011;46248;58.364;25.582;2022-11-20T09:34:03;18.52;;;9.57;;
59766;SDS011;46248;58.364;25.582;2022-11-20T09:37:25;7.43;;;3.95;;
59766;SDS011;46248;58.364;25.582;2022-11-20T09:40:49;6.95;;;3.88;;
59766;SDS011;46248;58.364;25.582;2022-11-20T09:44:23;21.65;;;7.63;;
59766;SDS011;46248;58.364;25.582;2022-11-20T09:51:43;17.35;;;6.68;;
59766;SDS011;46248;58.364;25.582;2022-11-20T09:55:15;20.05;;;11.38;;
59766;SDS011;46248;58.364;25.582;2022-11-20T09:58:39;12.20;;;7.47;;
59766;SDS011;46248;58.364;25.582;2022-11-20T10:02:08;10.23;;;6.47;;
59766;SDS011;46248;58.364;25.582;2022-11-20T10:05:42;6.30;;;4.65;;
59766;SDS011;46248;58.364;25.582;2022-11-20T10:09:13;8.93;;;4.35;;
59766;SDS011;46248;58.364;25.582;2022-11-20T10:12:48;6.55;;;3.92;;
59766;SDS011;46248;58.364;25.582;2022-11-20T10:16:25;6.50;;;3.95;;
59766;SDS011;46248;58.364;25.582;2022-11-20T10:20:07;5.10;;;3.33;;
59766;SDS011;46248;58.364;25.582;2022-11-20T10:27:37;5.85;;;3.45;;
59766;SDS011;46248;58.364;25.582;2022-11-20T10:31:14;11.50;;;3.92;;
59766;SDS011;46248;58.364;25.582;2022-11-20T10:34:49;6.82;;;3.90;;
59766;SDS011;46248;58.364;25.582;2022-11-20T10:38:17;7.25;;;3.92;;
59766;SDS011;46248;58.364;25.582;2022-11-20T10:41:43;8.68;;;4.45;;
59766;SDS011;46248;58.364;25.582;2022-11-20T10:45:13;6.85;;;4.35;;
59766;SDS011;46248;58.364;25.582;2022-11-20T10:48:43;7.20;;;4.03;;
59766;SDS011;46248;58.364;25.582;2022-11-20T10:52:09;5.88;;;3.67;;
59766;SDS011;46248;58.364;25.582;2022-11-20T10:55:40;4.95;;;3.60;;
59766;SDS011;46248;58.364;25.582;2022-11-20T11:02:56;7.50;;;4.25;;
59766;SDS011;46248;58.364;25.582;2022-11-20T11:06:25;7.25;;;4.55;;
59766;SDS011;46248;58.364;25.582;2022-11-20T11:09:56;8.05;;;4.75;;
59766;SDS011;46248;58.364;25.582;2022-11-20T11:13:21;10.30;;;5.07;;
59766;SDS011;46248;58.364;25.582;2022-11-20T11:16:49;10.63;;;5.00;;
59766;SDS011;46248;58.364;25.582;2022-11-20T11:20:15;8.32;;;5.07;;
59766;SDS011;46248;58.364;25.582;2022-11-20T11:23:39;6.28;;;4.20;;
59766;SDS011;46248;58.364;25.582;2022-11-20T11:27:02;14.43;;;6.55;;
59766;SDS011;46248;58.364;25.582;2022-11-20T11:30:42;23.60;;;12.05;;
59766;SDS011;46248;58.364;25.582;2022-11-20T11:34:11;12.95;;;6.25;;
59766;SDS011;46248;58.364;25.582;2022-11-20T11:37:35;7.57;;;5.60;;
59766;SDS011;46248;58.364;25.582;2022-11-20T11:40:59;9.48;;;4.57;;
59766;SDS011;46248;58.364;25.582;2022-11-20T11:44:22;8.18;;;4.55;;
59766;SDS011;46248;58.364;25.582;2022-11-20T11:48:08;8.68;;;5.15;;
59766;SDS011;46248;58.364;25.582;2022-11-20T11:51:32;8.98;;;4.65;;
59766;SDS011;46248;58.364;25.582;2022-11-20T11:55:00;8.40;;;4.15;;
59766;SDS011;46248;58.364;25.582;2022-11-20T11:58:34;9.07;;;4.57;;
59766;SDS011;46248;58.364;25.582;2022-11-20T12:02:11;8.32;;;4.88;;
59766;SDS011;46248;58.364;25.582;2022-11-20T12:05:47;12.57;;;6.72;;
59766;SDS011;46248;58.364;25.582;2022-11-20T12:09:12;6.75;;;5.10;;
59766;SDS011;46248;58.364;25.582;2022-11-20T12:12:36;12.50;;;6.72;;
59766;SDS011;46248;58.364;25.582;2022-11-20T12:16:01;10.98;;;4.72;;
59766;SDS011;46248;58.364;25.582;2022-11-20T12:19:25;12.68;;;5.65;;
59766;SDS011;46248;58.364;25.582;2022-11-20T12:22:53;9.98;;;5.60;;
59766;SDS011;46248;58.364;25.582;2022-11-20T12:26:22;8.20;;;4.30;;
59766;SDS011;46248;58.364;25.582;2022-11-20T12:30:01;8.65;;;4.47;;
59766;SDS011;46248;58.364;25.582;2022-11-20T12:37:20;7.38;;;4.80;;
59766;SDS011;46248;58.364;25.582;2022-11-20T12:40:53;10.52;;;5.68;;
59766;SDS011;46248;58.364;25.582;2022-11-20T12:44:25;16.30;;;7.60;;
59766;SDS011;46248;58.364;25.582;2022-11-20T12:52:10;12.35;;;6.07;;
59766;SDS011;46248;58.364;25.582;2022-11-20T12:55:44;23.48;;;10.73;;
59766;SDS011;46248;58.364;25.582;2022-11-20T12:59:19;20.05;;;8.10;;
59766;SDS011;46248;58.364;25.582;2022-11-20T13:03:06;44.95;;;12.93;;
59766;SDS011;46248;58.364;25.582;2022-11-20T13:06:45;12.70;;;7.13;;
59766;SDS011;46248;58.364;25.582;2022-11-20T13:10:11;41.42;;;12.70;;
59766;SDS011;46248;58.364;25.582;2022-11-20T13:13:41;33.17;;;11.30;;
59766;SDS011;46248;58.364;25.582;2022-11-20T13:17:17;38.88;;;11.50;;
59766;SDS011;46248;58.364;25.582;2022-11-20T13:20:45;37.53;;;12.55;;
59766;SDS011;46248;58.364;25.582;2022-11-20T13:24:19;18.33;;;6.22;;
59766;SDS011;46248;58.364;25.582;2022-11-20T13:27:46;14.50;;;6.35;;
59766;SDS011;46248;58.364;25.582;2022-11-20T13:31:09;11.32;;;6.82;;
59766;SDS011;46248;58.364;25.582;2022-11-20T13:34:54;24.63;;;10.00;;
59766;SDS011;46248;58.364;25.582;2022-11-20T13:38:17;27.38;;;9.90;;
59766;SDS011;46248;58.364;25.582;2022-11-20T13:41:39;25.85;;;9.77;;
59766;SDS011;46248;58.364;25.582;2022-11-20T13:45:08;11.95;;;5.88;;
59766;SDS011;46248;58.364;25.582;2022-11-20T13:48:32;9.35;;;4.60;;
59766;SDS011;46248;58.364;25.582;2022-11-20T13:52:06;6.53;;;4.03;;
59766;SDS011;46248;58.364;25.582;2022-11-20T13:55:50;9.88;;;4.43;;
59766;SDS011;46248;58.364;25.582;2022-11-20T13:59:24;5.63;;;3.58;;
59766;SDS011;46248;58.364;25.582;2022-11-20T14:03:07;9.70;;;5.75;;
59766;SDS011;46248;58.364;25.582;2022-11-20T14:06:38;9.82;;;5.25;;
59766;SDS011;46248;58.364;25.582;2022-11-20T14:10:04;6.97;;;4.53;;
59766;SDS011;46248;58.364;25.582;2022-11-20T14:13:27;10.40;;;4.65;;
59766;SDS011;46248;58.364;25.582;2022-11-20T14:16:49;9.82;;;4.78;;
59766;SDS011;46248;58.364;25.582;2022-11-20T14:20:12;9.98;;;4.68;;
59766;SDS011;46248;58.364;25.582;2022-11-20T14:23:39;11.90;;;5.95;;
59766;SDS011;46248;58.364;25.582;2022-11-20T14:27:02;10.02;;;5.70;;
59766;SDS011;46248;58.364;25.582;2022-11-20T14:30:26;9.20;;;4.90;;
59766;SDS011;46248;58.364;25.582;2022-11-20T14:33:49;9.20;;;5.70;;
59766;SDS011;46248;58.364;25.582;2022-11-20T14:37:12;7.72;;;4.32;;
59766;SDS011;46248;58.364;25.582;2022-11-20T14:40:40;10.52;;;6.28;;
59766;SDS011;46248;58.364;25.582;2022-11-20T14:44:05;9.88;;;5.20;;
59766;SDS011;46248;58.364;25.582;2022-11-20T14:47:30;10.27;;;6.35;;
59766;SDS011;46248;58.364;25.582;2022-11-20T14:50:53;14.32;;;7.95;;
59766;SDS011;46248;58.364;25.582;2022-11-20T14:54:16;9.95;;;5.45;;
59766;SDS011;46248;58.364;25.582;2022-11-20T14:57:40;9.40;;;5.18;;
59766;SDS011;46248;58.364;25.582;2022-11-20T15:01:04;10.38;;;4.78;;
59766;SDS011;46248;58.364;25.582;2022-11-20T15:04:27;17.48;;;7.25;;
59766;SDS011;46248;58.364;25.582;2022-11-20T15:07:50;11.25;;;5.22;;
59766;SDS011;46248;58.364;25.582;2022-11-20T15:11:16;7.13;;;4.43;;
59766;SDS011;46248;58.364;25.582;2022-11-20T15:14:39;9.02;;;4.63;;
59766;SDS011;46248;58.364;25.582;2022-11-20T15:18:03;11.90;;;5.88;;
59766;SDS011;46248;58.364;25.582;2022-11-20T15:21:25;10.68;;;6.25;;
59766;SDS011;46248;58.364;25.582;2022-11-20T15:24:47;8.00;;;4.75;;
59766;SDS011;46248;58.364;25.582;2022-11-20T15:28:13;9.82;;;4.68;;
59766;SDS011;46248;58.364;25.582;2022-11-20T15:31:39;9.13;;;4.60;;
59766;SDS011;46248;58.364;25.582;2022-11-20T15:35:05;10.23;;;4.72;;
59766;SDS011;46248;58.364;25.582;2022-11-20T15:38:30;10.98;;;5.22;;
59766;SDS011;46248;58.364;25.582;2022-11-20T15:41:53;14.15;;;6.63;;
59766;SDS011;46248;58.364;25.582;2022-11-20T15:45:17;12.68;;;6.68;;
59766;SDS011;46248;58.364;25.582;2022-11-20T15:48:39;12.55;;;6.47;;
59766;SDS011;46248;58.364;25.582;2022-11-20T15:52:09;13.68;;;6.68;;
59766;SDS011;46248;58.364;25.582;2022-11-20T15:55:32;11.18;;;4.80;;
59766;SDS011;46248;58.364;25.582;2022-11-20T15:58:54;20.83;;;7.28;;
59766;SDS011;46248;58.364;25.582;2022-11-20T16:02:16;20.50;;;7.95;;
59766;SDS011;46248;58.364;25.582;2022-11-20T16:05:38;11.35;;;5.63;;
59766;SDS011;46248;58.364;25.582;2022-11-20T16:09:02;24.67;;;9.73;;
59766;SDS011;46248;58.364;25.582;2022-11-20T16:12:24;13.88;;;6.18;;
59766;SDS011;46248;58.364;25.582;2022-11-20T16:16:04;29.17;;;10.85;;
59766;SDS011;46248;58.364;25.582;2022-11-20T16:19:30;42.47;;;12.55;;
59766;SDS011;46248;58.364;25.582;2022-11-20T16:22:51;12.05;;;7.18;;
59766;SDS011;46248;58.364;25.582;2022-11-20T16:26:15;34.78;;;12.57;;
59766;SDS011;46248;58.364;25.582;2022-11-20T16:29:39;19.33;;;6.45;;
59766;SDS011;46248;58.364;25.582;2022-11-20T16:33:01;16.75;;;8.45;;
59766;SDS011;46248;58.364;25.582;2022-11-20T16:36:24;16.85;;;8.15;;
59766;SDS011;46248;58.364;25.582;2022-11-20T16:39:47;30.00;;;10.18;;
59766;SDS011;46248;58.364;25.582;2022-11-20T16:43:11;19.92;;;9.10;;
59766;SDS011;46248;58.364;25.582;2022-11-20T16:46:35;14.82;;;6.60;;
59766;SDS011;46248;58.364;25.582;2022-11-20T16:50:00;24.60;;;9.45;;
59766;SDS011;46248;58.364;25.582;2022-11-20T16:53:22;16.63;;;7.65;;
59766;SDS011;46248;58.364;25.582;2022-11-20T16:56:44;40.38;;;21.55;;
59766;SDS011;46248;58.364;25.582;2022-11-20T17:00:09;56.08;;;22.23;;
59766;SDS011;46248;58.364;25.582;2022-11-20T17:03:31;39.97;;;15.80;;
59766;SDS011;46248;58.364;25.582;2022-11-20T17:06:53;29.52;;;14.07;;
59766;SDS011;46248;58.364;25.582;2022-11-20T17:10:15;30.95;;;12.90;;
59766;SDS011;46248;58.364;25.582;2022-11-20T17:13:38;22.90;;;11.52;;
59766;SDS011;46248;58.364;25.582;2022-11-20T17:17:02;21.17;;;9.75;;
59766;SDS011;46248;58.364;25.582;2022-11-20T17:20:24;33.38;;;22.42;;
59766;SDS011;46248;58.364;25.582;2022-11-20T17:23:46;24.30;;;12.55;;
59766;SDS011;46248;58.364;25.582;2022-11-20T17:27:08;32.15;;;18.75;;
59766;SDS011;46248;58.364;25.582;2022-11-20T17:30:30;32.38;;;13.10;;
59766;SDS011;46248;58.364;25.582;2022-11-20T17:33:53;16.30;;;6.85;;
59766;SDS011;46248;58.364;25.582;2022-11-20T17:37:15;44.10;;;21.50;;
59766;SDS011;46248;58.364;25.582;2022-11-20T17:40:37;39.30;;;15.88;;
59766;SDS011;46248;58.364;25.582;2022-11-20T17:44:00;17.27;;;8.35;;
59766;SDS011;46248;58.364;25.582;2022-11-20T17:47:22;10.88;;;5.93;;
59766;SDS011;46248;58.364;25.582;2022-11-20T17:50:46;14.27;;;7.75;;
59766;SDS011;46248;58.364;25.582;2022-11-20T17:54:09;14.27;;;7.60;;
59766;SDS011;46248;58.364;25.582;2022-11-20T17:57:31;17.02;;;11.00;;
59766;SDS011;46248;58.364;25.582;2022-11-20T18:01:11;15.48;;;7.68;;
59766;SDS011;46248;58.364;25.582;2022-11-20T18:04:33;21.95;;;12.13;;
59766;SDS011;46248;58.364;25.582;2022-11-20T18:07:57;42.40;;;21.67;;
59766;SDS011;46248;58.364;25.582;2022-11-20T18:11:19;24.67;;;11.40;;
59766;SDS011;46248;58.364;25.582;2022-11-20T18:14:42;20.52;;;10.32;;
59766;SDS011;46248;58.364;25.582;2022-11-20T18:18:05;22.13;;;9.57;;
59766;SDS011;46248;58.364;25.582;2022-11-20T18:21:27;16.45;;;8.73;;
59766;SDS011;46248;58.364;25.582;2022-11-20T18:24:52;27.35;;;15.40;;
59766;SDS011;46248;58.364;25.582;2022-11-20T18:28:14;29.10;;;16.15;;
59766;SDS011;46248;58.364;25.582;2022-11-20T18:31:39;26.02;;;12.50;;
59766;SDS011;46248;58.364;25.582;2022-11-20T18:35:02;17.05;;;9.00;;
59766;SDS011;46248;58.364;25.582;2022-11-20T18:38:24;20.45;;;10.25;;
59766;SDS011;46248;58.364;25.582;2022-11-20T18:41:48;19.55;;;9.40;;
59766;SDS011;46248;58.364;25.582;2022-11-20T18:45:27;18.88;;;9.73;;
59766;SDS011;46248;58.364;25.582;2022-11-20T18:48:50;24.98;;;14.52;;
59766;SDS011;46248;58.364;25.582;2022-11-20T18:52:12;30.80;;;19.92;;
59766;SDS011;46248;58.364;25.582;2022-11-20T18:55:34;22.00;;;11.57;;
59766;SDS011;46248;58.364;25.582;2022-11-20T18:58:58;32.90;;;17.85;;
59766;SDS011;46248;58.364;25.582;2022-11-20T19:02:21;10.13;;;5.80;;
59766;SDS011;46248;58.364;25.582;2022-11-20T19:05:43;14.63;;;8.25;;
59766;SDS011;46248;58.364;25.582;2022-11-20T19:09:05;18.67;;;10.15;;
59766;SDS011;46248;58.364;25.582;2022-11-20T19:12:29;16.85;;;8.35;;
59766;SDS011;46248;58.364;25.582;2022-11-20T19:15:52;20.45;;;8.68;;
59766;SDS011;46248;58.364;25.582;2022-11-20T19:19:14;14.07;;;7.80;;
59766;SDS011;46248;58.364;25.582;2022-11-20T19:22:36;16.65;;;7.75;;
59766;SDS011;46248;58.364;25.582;2022-11-20T19:25:58;12.77;;;6.22;;
59766;SDS011;46248;58.364;25.582;2022-11-20T19:29:21;18.00;;;9.95;;
59766;SDS011;46248;58.364;25.582;2022-11-20T19:32:47;17.23;;;8.68;;
59766;SDS011;46248;58.364;25.582;2022-11-20T19:36:10;15.30;;;6.97;;
59766;SDS011;46248;58.364;25.582;2022-11-20T19:39:32;16.02;;;7.63;;
59766;SDS011;46248;58.364;25.582;2022-11-20T19:42:55;13.45;;;7.07;;
59766;SDS011;46248;58.364;25.582;2022-11-20T19:46:17;14.18;;;6.78;;
59766;SDS011;46248;58.364;25.582;2022-11-20T19:49:41;13.07;;;6.60;;
59766;SDS011;46248;58.364;25.582;2022-11-20T19:53:03;15.15;;;8.27;;
59766;SDS011;46248;58.364;25.582;2022-11-20T19:56:27;15.50;;;7.97;;
59766;SDS011;46248;58.364;25.582;2022-11-20T19:59:50;12.80;;;6.90;;
59766;SDS011;46248;58.364;25.582;2022-11-20T20:03:12;16.42;;;7.43;;
59766;SDS011;46248;58.364;25.582;2022-11-20T20:06:36;19.30;;;7.15;;
59766;SDS011;46248;58.364;25.582;2022-11-20T20:09:59;11.13;;;6.80;;
59766;SDS011;46248;58.364;25.582;2022-11-20T20:13:21;14.05;;;6.10;;
59766;SDS011;46248;58.364;25.582;2022-11-20T20:16:44;12.65;;;7.07;;
59766;SDS011;46248;58.364;25.582;2022-11-20T20:20:06;12.70;;;6.00;;